sensor_id;sensor_type;location;lat;lon;timestamp;temperature;humidity
23116;DHT22;11727;52.134;5.052;2022-11-20T00:00:09;-1.30;99.90
23116;DHT22;11727;52.134;5.052;2022-11-20T00:02:34;-1.30;99.90
23116;DHT22;11727;52.134;5.052;2022-11-20T00:05:00;-1.30;99.90
23116;DHT22;11727;52.134;5.052;2022-11-20T00:07:25;-1.30;99.90
23116;DHT22;11727;52.134;5.052;2022-11-20T00:09:51;-1.30;99.90
23116;DHT22;11727;52.134;5.052;2022-11-20T00:12:16;-1.30;99.90
23116;DHT22;11727;52.134;5.052;2022-11-20T00:14:42;-1.40;99.90
23116;DHT22;11727;52.134;5.052;2022-11-20T00:17:08;-1.40;99.90
23116;DHT22;11727;52.134;5.052;2022-11-20T00:19:33;-1.40;99.90
23116;DHT22;11727;52.134;5.052;2022-11-20T00:21:59;-1.40;99.90
23116;DHT22;11727;52.134;5.052;2022-11-20T00:24:24;-1.40;99.90
23116;DHT22;11727;52.134;5.052;2022-11-20T00:26:50;-1.50;99.90
23116;DHT22;11727;52.134;5.052;2022-11-20T00:29:15;-1.50;99.90
23116;DHT22;11727;52.134;5.052;2022-11-20T00:31:41;-1.50;99.90
23116;DHT22;11727;52.134;5.052;2022-11-20T00:34:07;-1.50;99.90
23116;DHT22;11727;52.134;5.052;2022-11-20T00:36:33;-1.50;99.90
23116;DHT22;11727;52.134;5.052;2022-11-20T00:38:59;-1.50;99.90
23116;DHT22;11727;52.134;5.052;2022-11-20T00:41:27;-1.50;99.90
23116;DHT22;11727;52.134;5.052;2022-11-20T00:43:54;-1.50;99.90
23116;DHT22;11727;52.134;5.052;2022-11-20T00:46:22;-1.50;99.90
23116;DHT22;11727;52.134;5.052;2022-11-20T00:48:48;-1.60;99.90
23116;DHT22;11727;52.134;5.052;2022-11-20T00:51:16;-1.60;99.90
23116;DHT22;11727;52.134;5.052;2022-11-20T00:53:42;-1.60;99.90
23116;DHT22;11727;52.134;5.052;2022-11-20T00:56:11;-1.60;99.90
23116;DHT22;11727;52.134;5.052;2022-11-20T00:58:40;-1.60;99.90
23116;DHT22;11727;52.134;5.052;2022-11-20T01:01:10;-1.60;99.90
23116;DHT22;11727;52.134;5.052;2022-11-20T01:03:41;-1.60;99.90
23116;DHT22;11727;52.134;5.052;2022-11-20T01:06:16;-1.70;99.90
23116;DHT22;11727;52.134;5.052;2022-11-20T01:08:43;-1.70;99.90
23116;DHT22;11727;52.134;5.052;2022-11-20T01:11:15;-1.70;99.90
23116;DHT22;11727;52.134;5.052;2022-11-20T01:13:41;-1.70;99.90
23116;DHT22;11727;52.134;5.052;2022-11-20T01:18:33;-1.70;99.90
23116;DHT22;11727;52.134;5.052;2022-11-20T01:21:14;-1.80;99.90
23116;DHT22;11727;52.134;5.052;2022-11-20T01:23:42;-1.90;99.90
23116;DHT22;11727;52.134;5.052;2022-11-20T01:26:09;-1.90;99.90
23116;DHT22;11727;52.134;5.052;2022-11-20T01:28:35;-1.90;99.90
23116;DHT22;11727;52.134;5.052;2022-11-20T01:31:02;-1.90;99.90
23116;DHT22;11727;52.134;5.052;2022-11-20T01:33:35;-1.90;99.90
23116;DHT22;11727;52.134;5.052;2022-11-20T01:36:05;-1.90;99.90
23116;DHT22;11727;52.134;5.052;2022-11-20T01:38:31;-1.90;99.90
23116;DHT22;11727;52.134;5.052;2022-11-20T01:40:56;-1.90;99.90
23116;DHT22;11727;52.134;5.052;2022-11-20T01:43:22;-1.90;99.90
23116;DHT22;11727;52.134;5.052;2022-11-20T01:46:01;-1.90;99.90
23116;DHT22;11727;52.134;5.052;2022-11-20T01:48:38;-2.00;99.90
23116;DHT22;11727;52.134;5.052;2022-11-20T01:51:13;-2.00;99.90
23116;DHT22;11727;52.134;5.052;2022-11-20T01:53:40;-2.00;99.90
23116;DHT22;11727;52.134;5.052;2022-11-20T01:56:09;-2.00;99.90
23116;DHT22;11727;52.134;5.052;2022-11-20T01:58:39;-2.00;99.90
23116;DHT22;11727;52.134;5.052;2022-11-20T02:01:06;-2.10;99.90
23116;DHT22;11727;52.134;5.052;2022-11-20T02:03:31;-2.10;99.90
23116;DHT22;11727;52.134;5.052;2022-11-20T02:06:14;-2.10;99.90
23116;DHT22;11727;52.134;5.052;2022-11-20T02:08:41;-2.20;99.90
23116;DHT22;11727;52.134;5.052;2022-11-20T02:11:07;-2.20;99.90
23116;DHT22;11727;52.134;5.052;2022-11-20T02:13:33;-2.30;99.90
23116;DHT22;11727;52.134;5.052;2022-11-20T02:16:18;-2.30;99.90
23116;DHT22;11727;52.134;5.052;2022-11-20T02:18:46;-2.30;99.90
23116;DHT22;11727;52.134;5.052;2022-11-20T02:24:07;-2.20;99.90
23116;DHT22;11727;52.134;5.052;2022-11-20T02:27:06;-2.20;99.90
23116;DHT22;11727;52.134;5.052;2022-11-20T02:32:27;-2.20;99.90
23116;DHT22;11727;52.134;5.052;2022-11-20T02:34:57;-2.20;99.90
23116;DHT22;11727;52.134;5.052;2022-11-20T02:37:28;-2.20;99.90
23116;DHT22;11727;52.134;5.052;2022-11-20T02:39:55;-2.20;99.90
23116;DHT22;11727;52.134;5.052;2022-11-20T02:42:21;-2.20;99.90
23116;DHT22;11727;52.134;5.052;2022-11-20T02:44:46;-2.20;99.90
23116;DHT22;11727;52.134;5.052;2022-11-20T02:47:12;-2.20;99.90
23116;DHT22;11727;52.134;5.052;2022-11-20T02:49:37;-2.30;99.90
23116;DHT22;11727;52.134;5.052;2022-11-20T02:52:03;-2.30;99.90
23116;DHT22;11727;52.134;5.052;2022-11-20T02:54:29;-2.30;99.90
23116;DHT22;11727;52.134;5.052;2022-11-20T02:56:54;-2.30;99.90
23116;DHT22;11727;52.134;5.052;2022-11-20T02:59:20;-2.30;99.90
23116;DHT22;11727;52.134;5.052;2022-11-20T03:01:45;-2.40;99.90
23116;DHT22;11727;52.134;5.052;2022-11-20T03:04:11;-2.40;99.90
23116;DHT22;11727;52.134;5.052;2022-11-20T03:06:36;-2.40;99.90
23116;DHT22;11727;52.134;5.052;2022-11-20T03:09:02;-2.50;99.90
23116;DHT22;11727;52.134;5.052;2022-11-20T03:11:28;-2.50;99.90
23116;DHT22;11727;52.134;5.052;2022-11-20T03:13:54;-2.50;99.90
23116;DHT22;11727;52.134;5.052;2022-11-20T03:16:21;-2.40;99.90
23116;DHT22;11727;52.134;5.052;2022-11-20T03:18:47;-2.40;99.90
23116;DHT22;11727;52.134;5.052;2022-11-20T03:21:14;-2.40;99.90
23116;DHT22;11727;52.134;5.052;2022-11-20T03:23:40;-2.50;99.90
23116;DHT22;11727;52.134;5.052;2022-11-20T03:26:23;-2.50;99.90
23116;DHT22;11727;52.134;5.052;2022-11-20T03:28:51;-2.50;99.90
23116;DHT22;11727;52.134;5.052;2022-11-20T03:31:19;-2.50;99.90
23116;DHT22;11727;52.134;5.052;2022-11-20T03:33:45;-2.50;99.90
23116;DHT22;11727;52.134;5.052;2022-11-20T03:36:13;-2.50;99.90
23116;DHT22;11727;52.134;5.052;2022-11-20T03:38:39;-2.50;99.90
23116;DHT22;11727;52.134;5.052;2022-11-20T03:41:12;-2.50;99.90
23116;DHT22;11727;52.134;5.052;2022-11-20T03:43:38;-2.50;99.90
23116;DHT22;11727;52.134;5.052;2022-11-20T03:46:04;-2.50;99.90
23116;DHT22;11727;52.134;5.052;2022-11-20T03:48:30;-2.50;99.90
23116;DHT22;11727;52.134;5.052;2022-11-20T03:51:16;-2.50;99.90
23116;DHT22;11727;52.134;5.052;2022-11-20T03:53:43;-2.50;99.90
23116;DHT22;11727;52.134;5.052;2022-11-20T03:56:11;-2.50;99.90
23116;DHT22;11727;52.134;5.052;2022-11-20T03:58:37;-2.50;99.90
23116;DHT22;11727;52.134;5.052;2022-11-20T04:01:15;-2.60;99.90
23116;DHT22;11727;52.134;5.052;2022-11-20T04:03:42;-2.60;99.90
23116;DHT22;11727;52.134;5.052;2022-11-20T04:06:11;-2.60;99.90
23116;DHT22;11727;52.134;5.052;2022-11-20T04:08:38;-2.60;99.90
23116;DHT22;11727;52.134;5.052;2022-11-20T04:11:17;-2.60;99.90
23116;DHT22;11727;52.134;5.052;2022-11-20T04:13:47;-2.60;99.90
23116;DHT22;11727;52.134;5.052;2022-11-20T04:16:13;-2.60;99.90
23116;DHT22;11727;52.134;5.052;2022-11-20T04:18:39;-2.60;99.90
23116;DHT22;11727;52.134;5.052;2022-11-20T04:21:05;-2.70;99.90
23116;DHT22;11727;52.134;5.052;2022-11-20T04:23:31;-2.70;99.90
23116;DHT22;11727;52.134;5.052;2022-11-20T04:28:29;-2.70;99.90
23116;DHT22;11727;52.134;5.052;2022-11-20T04:31:00;-2.70;99.90
23116;DHT22;11727;52.134;5.052;2022-11-20T04:33:26;-2.70;99.90
23116;DHT22;11727;52.134;5.052;2022-11-20T04:35:51;-2.70;99.90
23116;DHT22;11727;52.134;5.052;2022-11-20T04:38:17;-2.70;99.90
23116;DHT22;11727;52.134;5.052;2022-11-20T04:40:43;-2.70;99.90
23116;DHT22;11727;52.134;5.052;2022-11-20T04:43:08;-2.80;99.90
23116;DHT22;11727;52.134;5.052;2022-11-20T04:45:34;-2.80;99.90
23116;DHT22;11727;52.134;5.052;2022-11-20T04:47:59;-2.80;99.90
23116;DHT22;11727;52.134;5.052;2022-11-20T04:50:25;-2.80;99.90
23116;DHT22;11727;52.134;5.052;2022-11-20T04:52:50;-2.80;99.90
23116;DHT22;11727;52.134;5.052;2022-11-20T04:55:16;-2.80;99.90
23116;DHT22;11727;52.134;5.052;2022-11-20T04:57:41;-2.90;99.90
23116;DHT22;11727;52.134;5.052;2022-11-20T05:00:07;-2.90;99.90
23116;DHT22;11727;52.134;5.052;2022-11-20T05:02:33;-2.90;99.90
23116;DHT22;11727;52.134;5.052;2022-11-20T05:04:59;-2.90;99.90
23116;DHT22;11727;52.134;5.052;2022-11-20T05:07:24;-2.80;99.90
23116;DHT22;11727;52.134;5.052;2022-11-20T05:09:50;-2.90;99.90
23116;DHT22;11727;52.134;5.052;2022-11-20T05:12:15;-2.90;99.90
23116;DHT22;11727;52.134;5.052;2022-11-20T05:14:41;-2.90;99.90
23116;DHT22;11727;52.134;5.052;2022-11-20T05:17:10;-2.90;99.90
23116;DHT22;11727;52.134;5.052;2022-11-20T05:19:36;-2.90;99.90
23116;DHT22;11727;52.134;5.052;2022-11-20T05:22:01;-2.90;99.90
23116;DHT22;11727;52.134;5.052;2022-11-20T05:24:27;-2.90;99.90
23116;DHT22;11727;52.134;5.052;2022-11-20T05:26:52;-3.00;99.90
23116;DHT22;11727;52.134;5.052;2022-11-20T05:29:18;-3.00;99.90
23116;DHT22;11727;52.134;5.052;2022-11-20T05:31:43;-3.00;99.90
23116;DHT22;11727;52.134;5.052;2022-11-20T05:34:09;-3.00;99.90
23116;DHT22;11727;52.134;5.052;2022-11-20T05:36:34;-3.00;99.90
23116;DHT22;11727;52.134;5.052;2022-11-20T05:39:00;-3.00;99.90
23116;DHT22;11727;52.134;5.052;2022-11-20T05:41:26;-3.00;99.90
23116;DHT22;11727;52.134;5.052;2022-11-20T05:43:51;-3.00;99.90
23116;DHT22;11727;52.134;5.052;2022-11-20T05:46:20;-3.00;99.90
23116;DHT22;11727;52.134;5.052;2022-11-20T05:48:46;-3.00;99.90
23116;DHT22;11727;52.134;5.052;2022-11-20T05:51:16;-3.00;99.90
23116;DHT22;11727;52.134;5.052;2022-11-20T05:53:42;-3.00;99.90
23116;DHT22;11727;52.134;5.052;2022-11-20T05:56:11;-3.10;99.90
23116;DHT22;11727;52.134;5.052;2022-11-20T05:58:37;-3.10;99.90
23116;DHT22;11727;52.134;5.052;2022-11-20T06:03:32;-3.10;99.90
23116;DHT22;11727;52.134;5.052;2022-11-20T06:05:59;-3.10;99.90
23116;DHT22;11727;52.134;5.052;2022-11-20T06:08:25;-3.10;99.90
23116;DHT22;11727;52.134;5.052;2022-11-20T06:10:50;-3.00;99.90
23116;DHT22;11727;52.134;5.052;2022-11-20T06:13:16;-3.00;99.90
23116;DHT22;11727;52.134;5.052;2022-11-20T06:15:41;-3.10;99.90
23116;DHT22;11727;52.134;5.052;2022-11-20T06:18:07;-3.00;99.90
23116;DHT22;11727;52.134;5.052;2022-11-20T06:20:32;-3.00;99.90
23116;DHT22;11727;52.134;5.052;2022-11-20T06:22:58;-3.00;99.90
23116;DHT22;11727;52.134;5.052;2022-11-20T06:25:23;-3.00;99.90
23116;DHT22;11727;52.134;5.052;2022-11-20T06:27:49;-3.00;99.90
23116;DHT22;11727;52.134;5.052;2022-11-20T06:30:15;-3.00;99.90
23116;DHT22;11727;52.134;5.052;2022-11-20T06:32:40;-3.00;99.90
23116;DHT22;11727;52.134;5.052;2022-11-20T06:35:06;-2.90;99.90
23116;DHT22;11727;52.134;5.052;2022-11-20T06:37:32;-2.90;99.90
23116;DHT22;11727;52.134;5.052;2022-11-20T06:39:57;-2.90;99.90
23116;DHT22;11727;52.134;5.052;2022-11-20T06:42:23;-2.90;99.90
23116;DHT22;11727;52.134;5.052;2022-11-20T06:44:48;-2.90;99.90
23116;DHT22;11727;52.134;5.052;2022-11-20T06:47:14;-3.00;99.90
23116;DHT22;11727;52.134;5.052;2022-11-20T06:49:39;-2.90;99.90
23116;DHT22;11727;52.134;5.052;2022-11-20T06:52:05;-2.90;99.90
23116;DHT22;11727;52.134;5.052;2022-11-20T06:54:30;-2.90;99.90
23116;DHT22;11727;52.134;5.052;2022-11-20T06:56:56;-2.90;99.90
23116;DHT22;11727;52.134;5.052;2022-11-20T06:59:22;-2.90;99.90
23116;DHT22;11727;52.134;5.052;2022-11-20T07:01:47;-2.90;99.90
23116;DHT22;11727;52.134;5.052;2022-11-20T07:04:13;-2.90;99.90
23116;DHT22;11727;52.134;5.052;2022-11-20T07:06:38;-2.90;99.90
23116;DHT22;11727;52.134;5.052;2022-11-20T07:09:04;-2.80;99.90
23116;DHT22;11727;52.134;5.052;2022-11-20T07:11:29;-2.90;99.90
23116;DHT22;11727;52.134;5.052;2022-11-20T07:13:56;-2.90;99.90
23116;DHT22;11727;52.134;5.052;2022-11-20T07:16:22;-2.90;99.90
23116;DHT22;11727;52.134;5.052;2022-11-20T07:18:47;-2.90;99.90
23116;DHT22;11727;52.134;5.052;2022-11-20T07:21:13;-2.80;99.90
23116;DHT22;11727;52.134;5.052;2022-11-20T07:23:39;-2.80;99.90
23116;DHT22;11727;52.134;5.052;2022-11-20T07:26:09;-2.80;99.90
23116;DHT22;11727;52.134;5.052;2022-11-20T07:28:35;-2.80;99.90
23116;DHT22;11727;52.134;5.052;2022-11-20T07:31:01;-2.70;99.90
23116;DHT22;11727;52.134;5.052;2022-11-20T07:33:27;-2.70;99.90
23116;DHT22;11727;52.134;5.052;2022-11-20T07:35:53;-2.70;99.90
23116;DHT22;11727;52.134;5.052;2022-11-20T07:38:19;-2.60;99.90
23116;DHT22;11727;52.134;5.052;2022-11-20T07:40:44;-2.60;99.90
23116;DHT22;11727;52.134;5.052;2022-11-20T07:43:10;-2.50;99.90
23116;DHT22;11727;52.134;5.052;2022-11-20T07:45:35;-2.50;99.90
23116;DHT22;11727;52.134;5.052;2022-11-20T07:48:01;-2.40;99.90
23116;DHT22;11727;52.134;5.052;2022-11-20T07:50:27;-2.40;99.90
23116;DHT22;11727;52.134;5.052;2022-11-20T07:52:55;-2.30;99.90
23116;DHT22;11727;52.134;5.052;2022-11-20T07:55:25;-2.20;99.90
23116;DHT22;11727;52.134;5.052;2022-11-20T07:57:55;-2.10;99.90
23116;DHT22;11727;52.134;5.052;2022-11-20T08:00:21;-2.10;99.90
23116;DHT22;11727;52.134;5.052;2022-11-20T08:02:46;-2.00;99.90
23116;DHT22;11727;52.134;5.052;2022-11-20T08:05:12;-1.90;99.90
23116;DHT22;11727;52.134;5.052;2022-11-20T08:07:39;-1.90;99.90
23116;DHT22;11727;52.134;5.052;2022-11-20T08:10:06;-1.80;99.90
23116;DHT22;11727;52.134;5.052;2022-11-20T08:12:32;-1.80;99.90
23116;DHT22;11727;52.134;5.052;2022-11-20T08:15:16;-1.70;99.90
23116;DHT22;11727;52.134;5.052;2022-11-20T08:17:41;-1.60;99.90
23116;DHT22;11727;52.134;5.052;2022-11-20T08:20:07;-1.60;99.90
23116;DHT22;11727;52.134;5.052;2022-11-20T08:22:33;-1.50;99.90
23116;DHT22;11727;52.134;5.052;2022-11-20T08:24:59;-1.50;99.90
23116;DHT22;11727;52.134;5.052;2022-11-20T08:27:24;-1.40;99.90
23116;DHT22;11727;52.134;5.052;2022-11-20T08:29:50;-1.30;99.90
23116;DHT22;11727;52.134;5.052;2022-11-20T08:32:15;-1.30;99.90
23116;DHT22;11727;52.134;5.052;2022-11-20T08:34:41;-1.20;99.90
23116;DHT22;11727;52.134;5.052;2022-11-20T08:37:06;-1.20;99.90
23116;DHT22;11727;52.134;5.052;2022-11-20T08:39:32;-1.10;99.90
23116;DHT22;11727;52.134;5.052;2022-11-20T08:41:57;-1.00;99.90
23116;DHT22;11727;52.134;5.052;2022-11-20T08:44:23;-1.00;99.90
23116;DHT22;11727;52.134;5.052;2022-11-20T08:46:48;-0.90;99.90
23116;DHT22;11727;52.134;5.052;2022-11-20T08:49:14;-0.90;99.90
23116;DHT22;11727;52.134;5.052;2022-11-20T08:51:40;-0.80;99.90
23116;DHT22;11727;52.134;5.052;2022-11-20T08:54:06;-0.80;99.90
23116;DHT22;11727;52.134;5.052;2022-11-20T08:56:32;-0.70;99.90
23116;DHT22;11727;52.134;5.052;2022-11-20T08:58:58;-0.70;99.90
23116;DHT22;11727;52.134;5.052;2022-11-20T09:01:27;-0.70;99.90
23116;DHT22;11727;52.134;5.052;2022-11-20T09:03:55;-0.60;99.90
23116;DHT22;11727;52.134;5.052;2022-11-20T09:06:22;-0.50;99.90
23116;DHT22;11727;52.134;5.052;2022-11-20T09:08:54;-0.50;99.90
23116;DHT22;11727;52.134;5.052;2022-11-20T09:11:20;-0.40;99.90
23116;DHT22;11727;52.134;5.052;2022-11-20T09:13:46;-0.40;99.90
23116;DHT22;11727;52.134;5.052;2022-11-20T09:16:11;-0.40;99.90
23116;DHT22;11727;52.134;5.052;2022-11-20T09:18:37;-0.30;99.90
23116;DHT22;11727;52.134;5.052;2022-11-20T09:21:08;-0.30;99.90
23116;DHT22;11727;52.134;5.052;2022-11-20T09:23:36;-0.20;99.90
23116;DHT22;11727;52.134;5.052;2022-11-20T09:26:04;-0.20;99.90
23116;DHT22;11727;52.134;5.052;2022-11-20T09:28:30;-0.10;99.90
23116;DHT22;11727;52.134;5.052;2022-11-20T09:30:55;-0.10;99.90
23116;DHT22;11727;52.134;5.052;2022-11-20T09:33:21;0.00;99.90
23116;DHT22;11727;52.134;5.052;2022-11-20T09:35:46;0.00;99.90
23116;DHT22;11727;52.134;5.052;2022-11-20T09:38:15;0.00;99.90
23116;DHT22;11727;52.134;5.052;2022-11-20T09:41:06;0.10;99.90
23116;DHT22;11727;52.134;5.052;2022-11-20T09:46:53;0.30;99.90
23116;DHT22;11727;52.134;5.052;2022-11-20T09:52:22;0.40;99.90
23116;DHT22;11727;52.134;5.052;2022-11-20T09:54:52;0.50;99.90
23116;DHT22;11727;52.134;5.052;2022-11-20T09:57:21;0.60;99.90
23116;DHT22;11727;52.134;5.052;2022-11-20T09:59:58;0.60;99.90
23116;DHT22;11727;52.134;5.052;2022-11-20T10:02:39;0.70;99.90
23116;DHT22;11727;52.134;5.052;2022-11-20T10:05:19;0.70;99.90
23116;DHT22;11727;52.134;5.052;2022-11-20T10:10:41;0.80;99.90
23116;DHT22;11727;52.134;5.052;2022-11-20T10:15:45;1.00;99.90
23116;DHT22;11727;52.134;5.052;2022-11-20T10:18:28;1.00;99.90
23116;DHT22;11727;52.134;5.052;2022-11-20T10:21:09;1.10;99.90
23116;DHT22;11727;52.134;5.052;2022-11-20T10:23:45;1.10;99.90
23116;DHT22;11727;52.134;5.052;2022-11-20T10:26:31;1.20;99.90
23116;DHT22;11727;52.134;5.052;2022-11-20T10:29:17;1.20;99.90
23116;DHT22;11727;52.134;5.052;2022-11-20T10:31:55;1.20;99.90
23116;DHT22;11727;52.134;5.052;2022-11-20T10:34:26;1.30;99.90
23116;DHT22;11727;52.134;5.052;2022-11-20T10:36:58;1.30;99.90
23116;DHT22;11727;52.134;5.052;2022-11-20T10:39:33;1.30;99.90
23116;DHT22;11727;52.134;5.052;2022-11-20T10:42:00;1.30;99.90
23116;DHT22;11727;52.134;5.052;2022-11-20T10:44:28;1.40;99.90
23116;DHT22;11727;52.134;5.052;2022-11-20T10:47:18;1.40;99.90
23116;DHT22;11727;52.134;5.052;2022-11-20T10:49:46;1.40;99.90
23116;DHT22;11727;52.134;5.052;2022-11-20T10:55:12;1.50;99.90
23116;DHT22;11727;52.134;5.052;2022-11-20T11:00:31;1.60;99.90
23116;DHT22;11727;52.134;5.052;2022-11-20T11:02:56;1.60;99.90
23116;DHT22;11727;52.134;5.052;2022-11-20T11:05:38;1.70;99.90
23116;DHT22;11727;52.134;5.052;2022-11-20T11:08:12;1.70;99.90
23116;DHT22;11727;52.134;5.052;2022-11-20T11:10:59;1.70;99.90
23116;DHT22;11727;52.134;5.052;2022-11-20T11:13:30;1.70;99.90
23116;DHT22;11727;52.134;5.052;2022-11-20T11:15:57;1.80;99.90
23116;DHT22;11727;52.134;5.052;2022-11-20T11:18:26;1.80;99.90
23116;DHT22;11727;52.134;5.052;2022-11-20T11:20:53;1.80;99.90
23116;DHT22;11727;52.134;5.052;2022-11-20T11:23:40;1.90;99.90
23116;DHT22;11727;52.134;5.052;2022-11-20T11:26:20;1.90;99.90
23116;DHT22;11727;52.134;5.052;2022-11-20T11:29:15;1.90;99.90
23116;DHT22;11727;52.134;5.052;2022-11-20T11:31:42;1.90;99.90
23116;DHT22;11727;52.134;5.052;2022-11-20T11:34:15;2.00;99.90
23116;DHT22;11727;52.134;5.052;2022-11-20T11:36:42;2.00;99.90
23116;DHT22;11727;52.134;5.052;2022-11-20T11:39:16;2.00;99.90
23116;DHT22;11727;52.134;5.052;2022-11-20T11:41:43;2.00;99.90
23116;DHT22;11727;52.134;5.052;2022-11-20T11:44:15;2.00;99.90
23116;DHT22;11727;52.134;5.052;2022-11-20T11:47:02;2.00;99.90
23116;DHT22;11727;52.134;5.052;2022-11-20T11:49:28;2.00;99.90
23116;DHT22;11727;52.134;5.052;2022-11-20T11:52:16;2.00;99.90
23116;DHT22;11727;52.134;5.052;2022-11-20T11:55:01;2.00;99.90
23116;DHT22;11727;52.134;5.052;2022-11-20T11:57:54;2.00;99.90
23116;DHT22;11727;52.134;5.052;2022-11-20T12:00:22;2.10;99.90
23116;DHT22;11727;52.134;5.052;2022-11-20T12:05:40;2.10;99.90
23116;DHT22;11727;52.134;5.052;2022-11-20T12:08:19;2.20;99.90
23116;DHT22;11727;52.134;5.052;2022-11-20T12:11:34;2.20;99.90
23116;DHT22;11727;52.134;5.052;2022-11-20T12:14:20;2.20;99.90
23116;DHT22;11727;52.134;5.052;2022-11-20T12:16:50;2.30;99.90
23116;DHT22;11727;52.134;5.052;2022-11-20T12:19:18;2.30;99.90
23116;DHT22;11727;52.134;5.052;2022-11-20T12:30:25;2.30;99.90
23116;DHT22;11727;52.134;5.052;2022-11-20T12:33:21;2.30;99.90
23116;DHT22;11727;52.134;5.052;2022-11-20T12:38:53;2.30;99.90
23116;DHT22;11727;52.134;5.052;2022-11-20T12:42:13;2.30;99.90
23116;DHT22;11727;52.134;5.052;2022-11-20T12:44:48;2.30;99.90
23116;DHT22;11727;52.134;5.052;2022-11-20T12:48:03;2.30;99.90
23116;DHT22;11727;52.134;5.052;2022-11-20T12:53:28;2.30;99.90
23116;DHT22;11727;52.134;5.052;2022-11-20T12:58:44;2.40;99.90
23116;DHT22;11727;52.134;5.052;2022-11-20T13:01:32;2.40;99.90
23116;DHT22;11727;52.134;5.052;2022-11-20T13:07:03;2.40;99.90
23116;DHT22;11727;52.134;5.052;2022-11-20T13:09:30;2.50;99.90
23116;DHT22;11727;52.134;5.052;2022-11-20T13:12:14;2.50;99.90
23116;DHT22;11727;52.134;5.052;2022-11-20T13:14:58;2.50;99.90
23116;DHT22;11727;52.134;5.052;2022-11-20T13:17:45;2.50;99.90
23116;DHT22;11727;52.134;5.052;2022-11-20T13:20:15;2.50;99.90
23116;DHT22;11727;52.134;5.052;2022-11-20T13:25:34;2.60;99.90
23116;DHT22;11727;52.134;5.052;2022-11-20T13:28:04;2.60;99.90
23116;DHT22;11727;52.134;5.052;2022-11-20T13:30:53;2.60;99.90
23116;DHT22;11727;52.134;5.052;2022-11-20T13:36:00;2.60;99.90
23116;DHT22;11727;52.134;5.052;2022-11-20T13:38:26;2.60;99.90
23116;DHT22;11727;52.134;5.052;2022-11-20T13:40:53;2.70;99.90
23116;DHT22;11727;52.134;5.052;2022-11-20T13:43:35;2.60;99.90
23116;DHT22;11727;52.134;5.052;2022-11-20T13:46:04;2.60;99.90
23116;DHT22;11727;52.134;5.052;2022-11-20T13:48:38;2.70;99.90
23116;DHT22;11727;52.134;5.052;2022-11-20T13:51:29;2.70;99.90
23116;DHT22;11727;52.134;5.052;2022-11-20T13:54:17;2.70;99.90
23116;DHT22;11727;52.134;5.052;2022-11-20T13:57:02;2.70;99.90
23116;DHT22;11727;52.134;5.052;2022-11-20T14:02:16;2.60;99.90
23116;DHT22;11727;52.134;5.052;2022-11-20T14:04:46;2.60;99.90
23116;DHT22;11727;52.134;5.052;2022-11-20T14:07:12;2.60;99.90
23116;DHT22;11727;52.134;5.052;2022-11-20T14:09:38;2.60;99.90
23116;DHT22;11727;52.134;5.052;2022-11-20T14:12:15;2.60;99.90
23116;DHT22;11727;52.134;5.052;2022-11-20T14:14:52;2.60;99.90
23116;DHT22;11727;52.134;5.052;2022-11-20T14:17:33;2.60;99.90
23116;DHT22;11727;52.134;5.052;2022-11-20T14:20:04;2.60;99.90
23116;DHT22;11727;52.134;5.052;2022-11-20T14:22:30;2.60;99.90
23116;DHT22;11727;52.134;5.052;2022-11-20T14:25:18;2.60;99.90
23116;DHT22;11727;52.134;5.052;2022-11-20T14:27:54;2.60;99.90
23116;DHT22;11727;52.134;5.052;2022-11-20T14:30:56;2.70;99.90
23116;DHT22;11727;52.134;5.052;2022-11-20T14:33:15;2.70;99.90
23116;DHT22;11727;52.134;5.052;2022-11-20T14:35:46;2.70;99.90
23116;DHT22;11727;52.134;5.052;2022-11-20T14:38:15;2.70;99.90
23116;DHT22;11727;52.134;5.052;2022-11-20T14:40:41;2.70;99.90
23116;DHT22;11727;52.134;5.052;2022-11-20T14:43:28;2.70;99.90
23116;DHT22;11727;52.134;5.052;2022-11-20T14:46:02;2.70;99.90
23116;DHT22;11727;52.134;5.052;2022-11-20T14:48:36;2.70;99.90
23116;DHT22;11727;52.134;5.052;2022-11-20T14:51:03;2.70;99.90
23116;DHT22;11727;52.134;5.052;2022-11-20T14:53:29;2.80;99.90
23116;DHT22;11727;52.134;5.052;2022-11-20T14:56:00;2.80;99.90
23116;DHT22;11727;52.134;5.052;2022-11-20T14:58:33;2.80;99.90
23116;DHT22;11727;52.134;5.052;2022-11-20T15:01:01;2.80;99.90
23116;DHT22;11727;52.134;5.052;2022-11-20T15:03:36;2.80;99.90
23116;DHT22;11727;52.134;5.052;2022-11-20T15:06:02;2.80;99.90
23116;DHT22;11727;52.134;5.052;2022-11-20T15:08:28;2.80;99.90
23116;DHT22;11727;52.134;5.052;2022-11-20T15:10:54;2.80;99.90
23116;DHT22;11727;52.134;5.052;2022-11-20T15:13:29;2.80;99.90
23116;DHT22;11727;52.134;5.052;2022-11-20T15:15:57;2.80;99.90
23116;DHT22;11727;52.134;5.052;2022-11-20T15:18:40;2.80;99.90
23116;DHT22;11727;52.134;5.052;2022-11-20T15:21:14;2.80;99.90
23116;DHT22;11727;52.134;5.052;2022-11-20T15:23:40;2.80;99.90
23116;DHT22;11727;52.134;5.052;2022-11-20T15:26:07;2.90;99.90
23116;DHT22;11727;52.134;5.052;2022-11-20T15:28:37;2.90;99.90
23116;DHT22;11727;52.134;5.052;2022-11-20T15:31:05;2.90;99.90
23116;DHT22;11727;52.134;5.052;2022-11-20T15:33:32;2.90;99.90
23116;DHT22;11727;52.134;5.052;2022-11-20T15:35:57;2.90;99.90
23116;DHT22;11727;52.134;5.052;2022-11-20T15:38:23;2.90;99.90
23116;DHT22;11727;52.134;5.052;2022-11-20T15:40:49;2.90;99.90
23116;DHT22;11727;52.134;5.052;2022-11-20T15:43:15;2.90;99.90
23116;DHT22;11727;52.134;5.052;2022-11-20T15:45:49;3.00;99.90
23116;DHT22;11727;52.134;5.052;2022-11-20T15:48:17;2.90;99.90
23116;DHT22;11727;52.134;5.052;2022-11-20T15:50:50;2.90;99.90
23116;DHT22;11727;52.134;5.052;2022-11-20T15:53:18;2.90;99.90
23116;DHT22;11727;52.134;5.052;2022-11-20T15:55:44;2.90;99.90
23116;DHT22;11727;52.134;5.052;2022-11-20T15:58:09;2.90;99.90
23116;DHT22;11727;52.134;5.052;2022-11-20T16:00:35;2.90;99.90
23116;DHT22;11727;52.134;5.052;2022-11-20T16:03:00;2.90;99.90
23116;DHT22;11727;52.134;5.052;2022-11-20T16:05:29;2.90;99.90
23116;DHT22;11727;52.134;5.052;2022-11-20T16:07:55;2.90;99.90
23116;DHT22;11727;52.134;5.052;2022-11-20T16:10:22;2.90;99.90
23116;DHT22;11727;52.134;5.052;2022-11-20T16:12:48;2.90;99.90
23116;DHT22;11727;52.134;5.052;2022-11-20T16:15:32;2.90;99.90
23116;DHT22;11727;52.134;5.052;2022-11-20T16:18:11;2.90;99.90
23116;DHT22;11727;52.134;5.052;2022-11-20T16:20:38;2.90;99.90
23116;DHT22;11727;52.134;5.052;2022-11-20T16:23:04;2.90;99.90
23116;DHT22;11727;52.134;5.052;2022-11-20T16:25:30;2.90;99.90
23116;DHT22;11727;52.134;5.052;2022-11-20T16:27:55;2.90;99.90
23116;DHT22;11727;52.134;5.052;2022-11-20T16:30:21;2.90;99.90
23116;DHT22;11727;52.134;5.052;2022-11-20T16:32:46;2.90;99.90
23116;DHT22;11727;52.134;5.052;2022-11-20T16:35:12;2.90;99.90
23116;DHT22;11727;52.134;5.052;2022-11-20T16:37:37;2.90;99.90
23116;DHT22;11727;52.134;5.052;2022-11-20T16:40:04;2.90;99.90
23116;DHT22;11727;52.134;5.052;2022-11-20T16:42:35;2.90;99.90
23116;DHT22;11727;52.134;5.052;2022-11-20T16:45:01;2.90;99.90
23116;DHT22;11727;52.134;5.052;2022-11-20T16:47:27;2.90;99.90
23116;DHT22;11727;52.134;5.052;2022-11-20T16:49:52;3.00;99.90
23116;DHT22;11727;52.134;5.052;2022-11-20T16:52:18;3.00;99.90
23116;DHT22;11727;52.134;5.052;2022-11-20T16:54:43;3.00;99.90